Time;durP1;ratioP1;P1;durP2;ratioP2;P2;SDS_P1;SDS_P2;PMS_P1;PMS_P2;Temp;Humidity;BMP_temperature;BMP_pressure;BME280_temperature;BME280_humidity;BME280_pressure;Samples;Min_cycle;Max_cycle;Signal;HPM_P1;HPM_P2
2023/07/28 00:01:00;;;;;;;2.70;2.50;;;;;;;23.06;35.63;99600.88;5091733;28;20468;-41
2023/07/28 00:03:26;;;;;;;2.80;2.42;;;;;;;22.99;35.96;99598.47;5091208;28;20024;-41
2023/07/28 00:05:51;;;;;;;4.57;2.85;;;;;;;23.24;35.55;99607.44;5091153;28;20020;-41
2023/07/28 00:08:16;;;;;;;3.67;2.47;;;;;;;23.12;35.60;99601.63;5091502;28;20028;-42
2023/07/28 00:10:42;;;;;;;3.83;2.85;;;;;;;22.93;36.11;99606.97;5091110;28;20028;-41
2023/07/28 00:13:08;;;;;;;4.15;2.63;;;;;;;22.84;36.06;99598.63;5091157;28;20399;-42
2023/07/28 00:15:34;;;;;;;3.97;2.60;;;;;;;22.86;36.12;99607.28;5091553;28;20020;-41
2023/07/28 00:18:01;;;;;;;3.92;2.58;;;;;;;22.70;36.36;99600.44;5091657;28;20473;-47
2023/07/28 00:20:27;;;;;;;3.50;2.90;;;;;;;22.91;36.05;99606.44;5091437;28;20024;-44
2023/07/28 00:22:53;;;;;;;3.60;2.80;;;;;;;22.87;35.99;99595.38;5090990;28;20019;-44
2023/07/28 00:25:18;;;;;;;3.10;2.55;;;;;;;22.62;36.40;99602.69;5091469;28;20047;-43
2023/07/28 00:27:44;;;;;;;3.42;2.67;;;;;;;22.54;36.70;99603.31;5091164;28;20024;-43
2023/07/28 00:30:11;;;;;;;3.60;2.58;;;;;;;22.73;36.47;99608.81;5091098;28;20376;-43
2023/07/28 00:32:36;;;;;;;2.70;2.50;;;;;;;22.78;36.22;99602.50;5090622;28;20028;-45
2023/07/28 00:35:02;;;;;;;3.42;2.80;;;;;;;22.75;36.23;99611.22;5090851;28;20131;-44
2023/07/28 00:37:28;;;;;;;3.72;2.90;;;;;;;22.82;36.06;99598.94;5090583;28;20103;-43
2023/07/28 00:39:54;;;;;;;3.58;2.72;;;;;;;22.45;36.42;99600.41;5090911;28;20474;-43
2023/07/28 00:42:19;;;;;;;3.70;2.70;;;;;;;22.57;36.57;99599.22;5090692;28;20028;-45
2023/07/28 00:44:44;;;;;;;2.65;2.42;;;;;;;22.74;36.19;99594.13;5091021;28;20052;-45
2023/07/28 00:47:10;;;;;;;3.42;3.00;;;;;;;22.71;35.97;99589.28;5090538;28;20021;-46
2023/07/28 00:49:37;;;;;;;3.90;2.90;;;;;;;22.64;36.33;99596.97;5090973;28;20048;-46
2023/07/28 00:52:06;;;;;;;3.75;2.88;;;;;;;22.88;36.09;99599.69;5090707;28;20095;-45
2023/07/28 00:54:31;;;;;;;5.57;3.40;;;;;;;22.76;36.04;99596.56;5090745;28;20028;-46
2023/07/28 00:56:57;;;;;;;3.70;2.80;;;;;;;22.53;36.25;99600.88;5091001;28;20036;-44
2023/07/28 00:59:22;;;;;;;5.70;3.05;;;;;;;22.70;35.91;99595.00;5090934;28;20028;-44
2023/07/28 01:01:48;;;;;;;4.35;3.00;;;;;;;22.52;36.52;99605.47;5090761;28;20028;-46
2023/07/28 01:04:13;;;;;;;3.88;3.00;;;;;;;22.53;36.29;99606.31;5090701;28;20024;-43
2023/07/28 01:07:02;;;;;;;3.95;2.95;;;;;;;22.56;36.54;99603.84;5090911;28;20380;-43
2023/07/28 01:09:46;;;;;;;5.72;3.00;;;;;;;22.53;36.38;99598.97;5090229;28;20053;-45
2023/07/28 01:12:12;;;;;;;4.15;2.92;;;;;;;22.55;36.62;99598.69;5090606;28;20039;-43
2023/07/28 01:14:37;;;;;;;3.28;2.80;;;;;;;22.54;36.55;99600.59;5090459;28;20016;-44
2023/07/28 01:17:03;;;;;;;3.17;2.78;;;;;;;22.49;37.05;99603.34;5090588;28;20395;-45
2023/07/28 01:19:29;;;;;;;4.32;2.70;;;;;;;22.48;37.00;99593.59;5090757;28;20353;-44
2023/07/28 01:22:22;;;;;;;3.15;2.75;;;;;;;22.39;37.09;99592.59;5090450;28;20027;-44
2023/07/28 01:25:20;;;;;;;4.15;2.70;;;;;;;22.25;37.48;99592.44;5090408;28;20028;-43
2023/07/28 01:27:47;;;;;;;3.92;2.70;;;;;;;22.26;37.59;99596.78;5090644;28;20085;-46
2023/07/28 01:30:12;;;;;;;5.93;2.72;;;;;;;22.25;37.51;99601.38;5090659;28;20020;-44
2023/07/28 01:32:38;;;;;;;3.67;2.90;;;;;;;22.39;37.65;99604.25;5090205;28;20035;-44
2023/07/28 01:35:04;;;;;;;3.08;2.78;;;;;;;22.23;37.75;99603.53;5090159;28;20479;-46
2023/07/28 01:37:29;;;;;;;3.00;2.60;;;;;;;22.24;37.51;99601.66;5090516;28;20055;-46
2023/07/28 01:39:55;;;;;;;3.28;2.70;;;;;;;22.17;37.83;99601.16;5090479;28;20028;-43
2023/07/28 01:42:21;;;;;;;3.10;2.80;;;;;;;22.16;37.57;99599.53;5090252;28;20031;-44
2023/07/28 01:44:46;;;;;;;3.78;2.72;;;;;;;22.12;38.11;99602.00;5090477;28;20028;-44
2023/07/28 01:47:12;;;;;;;2.97;2.60;;;;;;;21.64;38.62;99605.31;5090391;28;20016;-43
2023/07/28 01:49:37;;;;;;;3.33;2.58;;;;;;;21.69;38.60;99604.50;5091555;28;20027;-45
2023/07/28 01:52:03;;;;;;;3.25;2.80;;;;;;;21.98;37.81;99603.75;5093904;28;20020;-45
2023/07/28 01:54:28;;;;;;;3.20;2.90;;;;;;;21.83;38.21;99605.47;5093611;28;20028;-47
2023/07/28 01:56:54;;;;;;;3.65;2.83;;;;;;;21.81;38.50;99606.84;5093707;28;20024;-44
2023/07/28 01:59:20;;;;;;;3.33;3.00;;;;;;;21.86;38.44;99604.91;5093860;28;20149;-45
2023/07/28 02:01:45;;;;;;;3.20;2.75;;;;;;;21.79;38.56;99604.41;5093648;28;20035;-46
2023/07/28 02:04:11;;;;;;;4.97;3.00;;;;;;;21.71;38.64;99609.63;5093828;28;20024;-43
2023/07/28 02:06:36;;;;;;;4.65;3.17;;;;;;;21.69;38.75;99614.53;5093757;28;20024;-44
2023/07/28 02:09:02;;;;;;;3.97;3.10;;;;;;;21.73;38.88;99616.38;5093671;28;20028;-46
2023/07/28 02:11:27;;;;;;;3.72;3.20;;;;;;;21.70;38.83;99616.94;5093428;28;20030;-44
2023/07/28 02:13:53;;;;;;;4.03;2.83;;;;;;;21.70;38.71;99608.81;5093138;28;20102;-47
2023/07/28 02:16:18;;;;;;;3.10;2.80;;;;;;;21.76;38.74;99615.81;5093557;28;20028;-47
2023/07/28 02:18:43;;;;;;;3.75;3.10;;;;;;;21.65;38.55;99619.69;5093557;28;20052;-43
2023/07/28 02:21:09;;;;;;;6.22;3.00;;;;;;;21.69;38.81;99626.16;5093542;28;20024;-47
2023/07/28 02:23:34;;;;;;;3.67;3.00;;;;;;;21.76;38.89;99623.94;5092961;28;20016;-45
2023/07/28 02:26:00;;;;;;;4.95;3.80;;;;;;;21.72;38.79;99624.78;5093448;28;20026;-47
2023/07/28 02:28:25;;;;;;;5.25;3.10;;;;;;;21.62;38.86;99620.22;5093320;28;20050;-47
2023/07/28 02:30:51;;;;;;;4.60;3.00;;;;;;;21.54;39.41;99623.53;5093240;28;20019;-44
2023/07/28 02:33:16;;;;;;;5.43;3.00;;;;;;;21.46;39.26;99625.72;5093299;28;20131;-44
2023/07/28 02:35:42;;;;;;;4.63;2.90;;;;;;;21.38;39.70;99622.75;5092887;28;20067;-47
2023/07/28 02:38:08;;;;;;;4.20;3.03;;;;;;;21.39;39.93;99614.34;5093060;28;20099;-43
2023/07/28 02:40:33;;;;;;;5.50;3.00;;;;;;;21.46;39.08;99617.59;5093008;28;20106;-47
2023/07/28 02:42:59;;;;;;;4.25;3.20;;;;;;;21.53;39.33;99614.59;5093297;28;20077;-43
2023/07/28 02:45:24;;;;;;;3.72;3.22;;;;;;;21.44;39.57;99622.50;5093083;28;20110;-43
2023/07/28 02:47:50;;;;;;;4.68;3.40;;;;;;;21.35;39.72;99620.63;5092785;28;20031;-44
2023/07/28 02:50:16;;;;;;;4.18;3.20;;;;;;;21.33;39.92;99622.78;5092939;28;20039;-44
2023/07/28 02:52:41;;;;;;;5.10;3.03;;;;;;;21.24;39.91;99622.56;5092560;28;20027;-43
2023/07/28 02:55:07;;;;;;;6.43;3.00;;;;;;;21.24;40.10;99623.34;5092531;28;20044;-46
2023/07/28 02:57:32;;;;;;;5.13;3.30;;;;;;;21.25;40.07;99624.19;5092738;28;20025;-43
2023/07/28 02:59:58;;;;;;;3.70;3.00;;;;;;;21.23;39.96;99624.47;5092326;28;20047;-44
2023/07/28 03:02:24;;;;;;;4.55;3.00;;;;;;;21.24;40.63;99619.84;5092714;28;20028;-42
2023/07/28 03:04:49;;;;;;;5.20;3.60;;;;;;;21.01;40.64;99622.09;5092716;28;20058;-41
2023/07/28 03:07:15;;;;;;;3.50;3.10;;;;;;;21.16;40.18;99620.44;5092549;28;20035;-46
2023/07/28 03:09:41;;;;;;;7.32;3.30;;;;;;;21.20;40.21;99626.91;5092372;28;20055;-43
2023/07/28 03:12:07;;;;;;;3.75;3.10;;;;;;;21.12;40.28;99624.78;5092134;28;20021;-44
2023/07/28 03:14:32;;;;;;;5.32;3.22;;;;;;;20.98;40.38;99633.47;5091854;28;20443;-45
2023/07/28 03:16:58;;;;;;;3.33;2.95;;;;;;;21.07;40.55;99637.22;5092267;28;20055;-44
2023/07/28 03:19:23;;;;;;;4.38;3.30;;;;;;;21.09;40.31;99637.78;5092325;28;20020;-46
2023/07/28 03:21:48;;;;;;;5.85;3.10;;;;;;;20.91;40.99;99645.66;5091858;28;20450;-46
2023/07/28 03:24:14;;;;;;;5.00;3.20;;;;;;;20.92;40.68;99636.44;5092285;28;20023;-46
2023/07/28 03:26:39;;;;;;;4.05;3.10;;;;;;;20.99;40.99;99634.28;5092426;28;20024;-47
2023/07/28 03:29:05;;;;;;;3.83;3.35;;;;;;;21.15;40.85;99646.69;5092098;28;20103;-42
2023/07/28 03:31:30;;;;;;;3.88;3.22;;;;;;;21.08;40.49;99643.44;5091847;28;20101;-44
2023/07/28 03:33:56;;;;;;;6.07;3.35;;;;;;;20.92;40.87;99648.06;5091563;28;20039;-43
2023/07/28 03:36:21;;;;;;;5.30;3.22;;;;;;;20.82;41.27;99664.34;5091671;28;20040;-43
2023/07/28 03:38:47;;;;;;;5.18;3.30;;;;;;;20.82;41.61;99673.25;5091765;28;20031;-43
2023/07/28 03:41:13;;;;;;;5.30;3.25;;;;;;;20.98;41.25;99659.69;5091722;28;20448;-42
2023/07/28 03:43:39;;;;;;;4.05;2.90;;;;;;;21.44;40.90;99676.63;5091922;28;20078;-43
2023/07/28 03:46:05;;;;;;;3.97;3.20;;;;;;;21.93;39.22;99671.50;5091700;28;20022;-42
2023/07/28 03:48:30;;;;;;;6.45;3.70;;;;;;;22.04;39.15;99673.06;5091514;28;20024;-45
2023/07/28 03:50:56;;;;;;;5.53;3.03;;;;;;;22.01;39.78;99676.34;5091680;28;20043;-43
2023/07/28 03:53:21;;;;;;;6.95;3.22;;;;;;;22.32;39.11;99681.56;5091280;28;20016;-45
2023/07/28 03:55:47;;;;;;;5.10;3.10;;;;;;;22.76;39.38;99684.16;5091215;28;20031;-43
2023/07/28 03:58:12;;;;;;;5.38;3.33;;;;;;;23.06;38.41;99685.00;5091457;28;20032;-43
2023/07/28 04:00:37;;;;;;;6.95;3.20;;;;;;;23.58;38.09;99696.06;5090635;28;20107;-42
2023/07/28 04:03:03;;;;;;;5.97;3.50;;;;;;;23.86;36.94;99686.22;5091874;28;20020;-43
2023/07/28 04:05:28;;;;;;;3.42;3.00;;;;;;;24.29;35.68;99693.47;5091735;28;20085;-45
2023/07/28 04:07:54;;;;;;;5.40;2.90;;;;;;;24.72;35.13;99696.06;5091984;28;20027;-43
2023/07/28 04:10:19;;;;;;;3.63;2.97;;;;;;;24.59;34.61;99689.47;5091206;28;20012;-43
2023/07/28 04:12:44;;;;;;;4.70;3.03;;;;;;;24.57;34.16;99691.69;5089754;28;20150;-43
2023/07/28 04:15:10;;;;;;;4.13;2.80;;;;;;;24.94;33.67;99690.75;5089705;28;20061;-43
2023/07/28 04:17:36;;;;;;;3.22;2.60;;;;;;;25.20;33.41;99697.63;5090003;28;20043;-43
2023/07/28 04:20:01;;;;;;;3.00;2.70;;;;;;;25.50;32.63;99694.31;5090561;28;20443;-42
2023/07/28 04:22:28;;;;;;;3.83;2.55;;;;;;;26.03;32.33;99694.88;5090070;28;20478;-43
2023/07/28 04:24:54;;;;;;;5.18;2.88;;;;;;;26.34;31.79;99692.22;5090030;28;20066;-44
2023/07/28 04:27:19;;;;;;;6.57;2.95;;;;;;;25.93;31.95;99696.72;5090393;28;20016;-44
2023/07/28 04:29:45;;;;;;;3.80;3.00;;;;;;;25.82;32.24;99695.28;5090484;28;20031;-44
2023/07/28 04:32:10;;;;;;;3.45;2.90;;;;;;;26.39;31.29;99700.28;5091202;28;20028;-42
2023/07/28 04:34:35;;;;;;;4.28;2.80;;;;;;;26.81;30.91;99700.91;5090651;28;20452;-44
2023/07/28 04:37:01;;;;;;;7.32;3.05;;;;;;;26.69;30.28;99700.66;5090615;28;20028;-42
2023/07/28 04:39:27;;;;;;;4.10;2.83;;;;;;;27.13;30.15;99701.69;5091189;28;20503;-43
2023/07/28 04:41:52;;;;;;;5.40;2.95;;;;;;;27.60;29.59;99709.41;5091653;28;20039;-45
2023/07/28 04:44:20;;;;;;;6.35;3.33;;;;;;;28.01;29.14;99702.75;5090750;28;20180;-43
2023/07/28 04:46:47;;;;;;;6.00;2.97;;;;;;;28.28;28.88;99701.63;5091113;28;20016;-45
2023/07/28 04:49:13;;;;;;;4.07;2.70;;;;;;;28.46;28.49;99697.75;5091109;28;20083;-44
2023/07/28 04:51:38;;;;;;;3.67;2.30;;;;;;;28.63;28.00;99705.13;5091178;28;20472;-43
2023/07/28 04:54:04;;;;;;;3.22;2.83;;;;;;;29.04;27.62;99711.94;5090865;28;20030;-42
2023/07/28 04:56:29;;;;;;;4.47;2.88;;;;;;;29.32;27.07;99707.97;5090912;28;20086;-43
2023/07/28 04:58:55;;;;;;;3.15;2.58;;;;;;;29.67;26.64;99707.81;5090828;28;20024;-44
2023/07/28 05:01:20;;;;;;;4.88;2.95;;;;;;;29.66;26.80;99714.41;5090070;28;20031;-44
2023/07/28 05:03:46;;;;;;;5.57;3.88;;;;;;;28.37;29.69;99713.38;5090584;28;20023;-44
2023/07/28 05:06:11;;;;;;;6.18;3.95;;;;;;;27.53;31.44;99709.06;5090074;28;20030;-44
2023/07/28 05:08:37;;;;;;;6.43;3.70;;;;;;;27.11;32.21;99715.66;5090005;28;20078;-43
2023/07/28 05:11:02;;;;;;;6.07;3.58;;;;;;;27.09;32.46;99725.28;5090312;28;20459;-43
2023/07/28 05:13:28;;;;;;;9.35;3.80;;;;;;;27.18;32.31;99725.31;5090143;28;20047;-43
2023/07/28 05:15:53;;;;;;;4.22;3.20;;;;;;;27.42;31.00;99716.78;5089985;28;20035;-42
2023/07/28 05:18:19;;;;;;;7.20;4.05;;;;;;;27.20;32.05;99728.53;5089938;28;20031;-42
2023/07/28 05:20:44;;;;;;;5.68;3.92;;;;;;;27.14;32.04;99725.13;5090048;28;20479;-43
2023/07/28 05:23:09;;;;;;;6.40;3.95;;;;;;;26.63;32.29;99721.00;5089798;28;20016;-43
2023/07/28 05:25:35;;;;;;;6.47;4.10;;;;;;;26.88;32.77;99727.72;5092640;28;20107;-42
2023/07/28 05:28:00;;;;;;;6.75;3.80;;;;;;;27.11;32.23;99725.75;5094102;28;20016;-43
2023/07/28 05:30:26;;;;;;;5.88;3.58;;;;;;;27.23;31.76;99738.84;5093576;28;20032;-45
2023/07/28 05:32:54;;;;;;;7.38;4.05;;;;;;;27.65;30.92;99728.41;5093948;28;20016;-43
2023/07/28 05:35:20;;;;;;;5.20;3.15;;;;;;;27.58;30.29;99723.38;5093252;28;20040;-42
2023/07/28 05:37:46;;;;;;;6.43;3.75;;;;;;;27.92;30.29;99735.56;5093757;28;20090;-41
2023/07/28 05:40:12;;;;;;;5.13;3.40;;;;;;;28.06;30.23;99732.66;5094105;28;20033;-42
2023/07/28 05:42:37;;;;;;;4.30;3.03;;;;;;;28.34;28.83;99732.34;5093547;28;20113;-43
2023/07/28 05:45:03;;;;;;;4.63;2.78;;;;;;;28.79;28.44;99730.06;5093475;28;20112;-44
2023/07/28 05:47:29;;;;;;;3.90;2.88;;;;;;;29.09;28.01;99730.13;5093639;28;20016;-43
2023/07/28 05:49:54;;;;;;;6.47;3.00;;;;;;;29.14;27.95;99727.25;5093108;28;20483;-43
2023/07/28 05:52:20;;;;;;;3.60;2.83;;;;;;;29.52;26.17;99720.94;5093493;28;20043;-43
2023/07/28 05:54:45;;;;;;;4.63;2.90;;;;;;;29.31;26.94;99734.59;5074958;28;20019;-43
2023/07/28 05:57:10;;;;;;;4.60;3.00;;;;;;;29.37;26.82;99732.47;5093061;28;20131;-42
2023/07/28 05:59:36;;;;;;;6.70;4.75;;;;;;;29.32;26.70;99722.50;5093281;28;20023;-44
2023/07/28 06:02:02;;;;;;;6.75;3.40;;;;;;;29.78;26.59;99736.47;5092952;28;20028;-43
2023/07/28 06:04:27;;;;;;;4.00;3.05;;;;;;;30.25;26.31;99721.75;5092989;28;20058;-44
2023/07/28 06:06:53;;;;;;;5.53;3.20;;;;;;;30.55;25.49;99722.47;5093119;28;20031;-48
2023/07/28 06:09:18;;;;;;;5.97;2.50;;;;;;;30.32;25.73;99736.56;5093495;28;20016;-43
2023/07/28 06:11:44;;;;;;;4.93;2.70;;;;;;;30.19;25.81;99735.66;5092903;28;20100;-42
2023/07/28 06:14:09;;;;;;;5.30;2.83;;;;;;;30.03;26.38;99734.69;5093180;28;20016;-41
2023/07/28 06:16:35;;;;;;;4.43;2.70;;;;;;;30.06;26.26;99738.69;5092750;28;20020;-48
2023/07/28 06:19:00;;;;;;;4.72;2.60;;;;;;;30.39;26.18;99733.28;5093028;28;20031;-44
2023/07/28 06:21:26;;;;;;;3.75;2.50;;;;;;;30.70;25.87;99734.75;5093263;28;20399;-43
2023/07/28 06:23:51;;;;;;;3.60;2.92;;;;;;;30.54;25.75;99729.91;5092747;28;20069;-48
2023/07/28 06:26:17;;;;;;;4.50;3.10;;;;;;;30.45;26.30;99731.13;5093011;28;20031;-44
2023/07/28 06:28:42;;;;;;;8.10;3.25;;;;;;;30.08;27.17;99734.47;5092850;28;20024;-46
2023/07/28 06:31:08;;;;;;;7.68;3.22;;;;;;;30.27;27.26;99723.00;5093299;28;20133;-44
2023/07/28 06:33:34;;;;;;;5.43;3.42;;;;;;;30.20;27.69;99729.06;5092684;28;20028;-42
2023/07/28 06:35:59;;;;;;;4.57;3.08;;;;;;;29.93;26.74;99724.91;5091775;28;20039;-45
2023/07/28 06:38:25;;;;;;;4.70;3.15;;;;;;;30.19;26.40;99715.66;5092635;28;20742;-45
2023/07/28 06:40:50;;;;;;;5.10;2.83;;;;;;;30.33;25.53;99713.47;5092553;28;20487;-46
2023/07/28 06:43:18;;;;;;;3.90;2.67;;;;;;;30.53;25.92;99702.78;5093004;28;20023;-44
2023/07/28 06:45:43;;;;;;;4.72;3.00;;;;;;;30.86;24.85;99710.19;5092562;28;20062;-43
2023/07/28 06:48:08;;;;;;;5.28;2.75;;;;;;;30.91;25.34;99708.06;5092809;28;20512;-43
2023/07/28 06:50:34;;;;;;;4.57;2.83;;;;;;;31.10;25.35;99703.97;5092322;28;20474;-45
2023/07/28 06:52:59;;;;;;;3.67;2.70;;;;;;;31.10;25.48;99710.25;5092722;28;20035;-43
2023/07/28 06:55:25;;;;;;;5.15;3.47;;;;;;;30.35;27.40;99705.72;5091684;28;20032;-43
2023/07/28 06:57:50;;;;;;;6.63;3.80;;;;;;;30.27;27.46;99701.06;5092289;28;20024;-44
2023/07/28 07:00:17;;;;;;;7.28;3.58;;;;;;;30.21;27.57;99711.47;5091943;28;20024;-42
2023/07/28 07:02:43;;;;;;;6.93;3.30;;;;;;;30.07;27.70;99712.88;5092125;28;20458;-44
2023/07/28 07:05:08;;;;;;;4.68;3.33;;;;;;;30.21;27.31;99697.75;5092444;28;20471;-42
2023/07/28 07:07:34;;;;;;;4.32;3.05;;;;;;;30.50;27.18;99703.47;5092326;28;20012;-42
2023/07/28 07:09:59;;;;;;;6.75;3.30;;;;;;;30.67;26.48;99694.25;5092097;28;20024;-44
2023/07/28 07:12:25;;;;;;;5.10;3.05;;;;;;;30.41;26.41;99692.59;5092050;28;20023;-43
2023/07/28 07:14:51;;;;;;;6.15;3.20;;;;;;;30.46;26.95;99694.31;5091625;28;20399;-42
2023/07/28 07:17:16;;;;;;;3.70;2.95;;;;;;;30.58;26.34;99688.88;5091632;28;20042;-45
2023/07/28 07:19:42;;;;;;;4.00;2.88;;;;;;;31.13;25.84;99695.84;5091676;28;20020;-42
2023/07/28 07:22:07;;;;;;;3.40;2.85;;;;;;;31.42;24.59;99699.50;5091334;28;20024;-44
2023/07/28 07:24:32;;;;;;;4.95;2.80;;;;;;;31.83;24.42;99689.38;5091409;28;20494;-45
2023/07/28 07:26:58;;;;;;;4.80;2.67;;;;;;;31.85;24.06;99686.28;5091514;28;20031;-42
2023/07/28 07:29:24;;;;;;;4.90;2.70;;;;;;;31.64;24.26;99691.94;5091340;28;20548;-45
2023/07/28 07:31:54;;;;;;;3.45;2.65;;;;;;;31.79;24.11;99690.41;5091082;28;20047;-46
2023/07/28 07:34:20;;;;;;;5.03;2.70;;;;;;;32.04;23.86;99693.94;5091331;28;20027;-43
2023/07/28 07:36:46;;;;;;;5.05;2.30;;;;;;;32.15;23.55;99698.56;5090939;28;20048;-46
2023/07/28 07:39:11;;;;;;;5.47;2.80;;;;;;;32.34;23.30;99692.44;5091287;28;20491;-43
2023/07/28 07:41:36;;;;;;;3.00;2.55;;;;;;;32.49;23.51;99687.31;5091225;28;20447;-43
2023/07/28 07:44:02;;;;;;;3.72;2.60;;;;;;;32.48;23.40;99691.22;5091182;28;20016;-42
2023/07/28 07:46:27;;;;;;;4.95;3.00;;;;;;;32.59;23.70;99686.03;5090615;28;20016;-42
2023/07/28 07:48:53;;;;;;;5.88;3.10;;;;;;;32.13;24.39;99686.34;5090576;28;20032;-44
2023/07/28 07:51:18;;;;;;;4.85;3.10;;;;;;;31.22;24.85;99676.47;5091229;28;20081;-42
2023/07/28 07:53:45;;;;;;;9.50;3.00;;;;;;;30.95;25.02;99677.97;5091162;28;20483;-45
2023/07/28 07:56:10;;;;;;;4.47;3.22;;;;;;;30.89;25.82;99682.06;5090851;28;20027;-43
2023/07/28 07:58:36;;;;;;;5.57;2.85;;;;;;;30.78;25.95;99681.69;5090825;28;20023;-44
2023/07/28 08:01:02;;;;;;;4.43;2.80;;;;;;;31.47;24.83;99679.25;5091006;28;20032;-41
2023/07/28 08:03:28;;;;;;;3.58;2.55;;;;;;;31.47;23.62;99674.56;5090909;28;20019;-42
2023/07/28 08:05:54;;;;;;;3.72;2.50;;;;;;;31.15;24.09;99677.06;5090483;28;20337;-43
2023/07/28 08:08:20;;;;;;;4.68;2.15;;;;;;;30.97;23.93;99678.41;5091021;28;20080;-41
2023/07/28 08:10:47;;;;;;;4.70;2.50;;;;;;;30.72;23.92;99666.56;5090821;28;20035;-44
2023/07/28 08:13:13;;;;;;;7.13;2.47;;;;;;;30.48;24.68;99661.81;5090906;28;20017;-43
2023/07/28 08:15:38;;;;;;;4.95;2.47;;;;;;;30.75;24.09;99661.22;5090348;28;20058;-44
2023/07/28 08:18:04;;;;;;;3.80;2.50;;;;;;;30.79;23.60;99664.06;5090627;28;20058;-44
2023/07/28 08:20:29;;;;;;;5.13;2.42;;;;;;;30.68;24.30;99662.91;5090737;28;20479;-44
2023/07/28 08:22:55;;;;;;;6.75;2.45;;;;;;;30.84;24.31;99658.34;5090310;28;20491;-44
2023/07/28 08:25:22;;;;;;;3.75;2.78;;;;;;;31.08;23.99;99654.06;5090688;28;20047;-43
2023/07/28 08:27:48;;;;;;;4.07;2.40;;;;;;;31.43;23.88;99656.31;5090425;28;20399;-43
2023/07/28 08:30:15;;;;;;;6.05;3.00;;;;;;;31.95;23.52;99655.53;5090571;28;20480;-43
2023/07/28 08:32:41;;;;;;;3.60;2.40;;;;;;;31.82;22.92;99663.03;5090421;28;20165;-41
2023/07/28 08:35:08;;;;;;;3.67;2.38;;;;;;;32.18;22.12;99657.75;5090068;28;20563;-43
2023/07/28 08:37:33;;;;;;;4.05;2.40;;;;;;;32.33;21.91;99649.53;5090213;28;20039;-43
2023/07/28 08:39:59;;;;;;;5.40;2.00;;;;;;;32.31;21.55;99635.34;5090299;28;20020;-43
2023/07/28 08:42:24;;;;;;;6.93;4.10;;;;;;;31.82;22.26;99643.75;5090191;28;20016;-44
2023/07/28 08:44:52;;;;;;;4.88;2.80;;;;;;;32.38;22.51;99639.41;5090328;28;20115;-45
2023/07/28 08:47:18;;;;;;;4.60;2.00;;;;;;;33.02;21.76;99646.59;5090416;28;20016;-44
2023/07/28 08:49:44;;;;;;;2.30;1.90;;;;;;;33.31;20.68;99633.50;5090396;28;20031;-42
2023/07/28 08:52:10;;;;;;;2.35;2.05;;;;;;;33.25;20.16;99638.47;5090142;28;20028;-44
2023/07/28 08:54:35;;;;;;;2.55;2.00;;;;;;;32.82;19.98;99634.66;5090524;28;20124;-41
2023/07/28 08:57:01;;;;;;;3.08;1.95;;;;;;;33.06;20.69;99630.94;5089675;28;20520;-42
2023/07/28 08:59:28;;;;;;;2.72;2.10;;;;;;;33.42;20.99;99626.25;5092717;28;20520;-45
2023/07/28 09:01:55;;;;;;;3.33;1.98;;;;;;;33.47;20.25;99626.00;5094417;28;20161;-42
2023/07/28 09:04:21;;;;;;;2.95;2.17;;;;;;;33.17;20.46;99624.88;5094644;28;20028;-43
2023/07/28 09:06:51;;;;;;;3.72;2.20;;;;;;;33.39;20.17;99621.47;5094016;28;20092;-44
2023/07/28 09:09:19;;;;;;;3.53;2.30;;;;;;;33.69;19.86;99607.94;5094346;28;20031;-43
2023/07/28 09:11:47;;;;;;;3.13;2.10;;;;;;;33.74;19.49;99609.63;5094085;28;20103;-45
2023/07/28 09:14:14;;;;;;;2.63;2.25;;;;;;;33.72;19.88;99611.97;5094158;28;20020;-43
2023/07/28 09:16:40;;;;;;;3.88;2.40;;;;;;;33.63;18.92;99600.31;5093598;28;20093;-44
2023/07/28 09:19:07;;;;;;;5.03;2.50;;;;;;;33.03;19.49;99604.06;5093936;28;20438;-43
2023/07/28 09:21:33;;;;;;;2.65;2.08;;;;;;;33.21;20.02;99592.72;5094087;28;20016;-43
2023/07/28 09:24:04;;;;;;;2.13;1.90;;;;;;;33.38;19.21;99595.06;5093818;28;20028;-42
2023/07/28 09:26:42;;;;;;;3.58;2.00;;;;;;;33.40;19.15;99603.75;5094653;28;20034;-42
2023/07/28 09:29:19;;;;;;;2.30;1.93;;;;;;;33.27;17.75;99591.25;5094198;28;20105;-43
2023/07/28 09:31:46;;;;;;;1.88;1.70;;;;;;;33.36;17.40;99591.88;5094087;28;20027;-43
2023/07/28 09:34:13;;;;;;;1.90;1.70;;;;;;;33.19;17.35;99584.00;5094256;28;20472;-43
2023/07/28 09:36:39;;;;;;;1.83;1.60;;;;;;;33.39;17.08;99582.06;5093768;28;20040;-43
2023/07/28 09:39:09;;;;;;;2.15;1.83;;;;;;;33.21;17.03;99578.94;5093809;28;20051;-44
2023/07/28 09:41:37;;;;;;;2.90;1.77;;;;;;;33.11;16.85;99583.03;5093882;28;20031;-43
2023/07/28 09:44:03;;;;;;;;;;;;;;;33.23;16.91;99573.84;5094003;28;20071;-43
2023/07/28 09:46:30;;;;;;;1.75;1.48;;;;;;;33.00;17.33;99579.22;5093617;28;20370;-42
2023/07/28 09:48:59;;;;;;;3.17;1.90;;;;;;;33.44;17.43;99565.25;5093369;28;20411;-42
2023/07/28 09:51:30;;;;;;;1.98;1.80;;;;;;;33.60;17.55;99571.47;5093506;28;20109;-42
2023/07/28 09:54:00;;;;;;;2.20;1.67;;;;;;;33.86;17.36;99567.28;5093475;28;20164;-43
2023/07/28 09:56:29;;;;;;;2.25;1.67;;;;;;;34.01;16.71;99554.56;5093421;28;20451;-43
2023/07/28 09:58:55;;;;;;;;;;;;;;;34.01;16.52;99558.13;5093650;28;20548;-40
2023/07/28 10:01:23;;;;;;;1.83;1.63;;;;;;;33.97;16.82;99550.94;5093312;28;19908;-42
2023/07/28 10:03:48;;;;;;;1.67;1.58;;;;;;;33.51;17.04;99548.84;5093567;28;20035;-42
2023/07/28 10:06:16;;;;;;;2.50;1.75;;;;;;;33.58;17.85;99545.41;5093165;28;20020;-44
2023/07/28 10:08:43;;;;;;;2.40;1.90;;;;;;;33.62;17.76;99538.00;5093222;28;20077;-43
2023/07/28 10:11:11;;;;;;;3.45;1.80;;;;;;;33.75;17.17;99538.69;5092230;28;20054;-43
2023/07/28 10:13:42;;;;;;;;;;;;;;;33.87;17.27;99539.34;5093500;28;20104;-43
2023/07/28 10:16:09;;;;;;;2.05;1.70;;;;;;;33.92;17.44;99535.47;5092535;28;19919;-42
2023/07/28 10:18:35;;;;;;;2.55;1.90;;;;;;;34.20;17.72;99535.22;5092750;28;20040;-42
2023/07/28 10:21:13;;;;;;;3.03;1.77;;;;;;;33.83;17.93;99532.97;5092346;28;20030;-45
2023/07/28 10:23:39;;;;;;;2.35;1.88;;;;;;;34.32;16.61;99516.88;5092202;28;20048;-44
2023/07/28 10:26:07;;;;;;;3.30;1.63;;;;;;;34.62;16.21;99519.72;5092412;28;20034;-44
2023/07/28 10:28:41;;;;;;;1.85;1.60;;;;;;;34.65;16.17;99511.50;5092900;28;20088;-43
2023/07/28 10:31:10;;;;;;;3.08;2.35;;;;;;;34.58;16.69;99519.66;5075180;28;20547;-43
2023/07/28 10:33:43;;;;;;;2.28;1.90;;;;;;;33.64;16.85;99506.19;5092085;28;20028;-44
2023/07/28 10:36:31;;;;;;;2.45;1.90;;;;;;;33.46;16.80;99500.28;5092154;28;20106;-45
2023/07/28 10:39:14;;;;;;;3.00;1.73;;;;;;;34.38;16.29;99499.59;5074396;28;20111;-44
2023/07/28 10:42:09;;;;;;;2.00;1.60;;;;;;;35.22;15.79;99499.66;5092729;28;20496;-43
2023/07/28 10:44:34;;;;;;;1.88;1.63;;;;;;;36.38;15.22;99494.16;5092502;28;20043;-44
2023/07/28 10:47:01;;;;;;;3.67;1.60;;;;;;;36.58;14.37;99497.47;5092314;28;20019;-45
2023/07/28 10:49:33;;;;;;;1.70;1.60;;;;;;;37.29;14.50;99488.78;5092623;28;20028;-48
2023/07/28 10:51:58;;;;;;;2.38;1.70;;;;;;;36.96;14.80;99496.16;5092235;28;20028;-44
2023/07/28 10:54:25;;;;;;;1.92;1.70;;;;;;;37.04;14.71;99485.88;5092145;28;20028;-42
2023/07/28 10:56:50;;;;;;;1.88;1.67;;;;;;;37.53;13.98;99489.28;5092239;28;20089;-44
2023/07/28 10:59:16;;;;;;;2.65;2.15;;;;;;;36.68;13.98;99476.59;5092210;28;20016;-44
2023/07/28 11:01:42;;;;;;;2.60;1.90;;;;;;;36.35;14.36;99476.34;5091974;28;20024;-44
2023/07/28 11:04:19;;;;;;;2.00;1.80;;;;;;;35.78;14.25;99473.84;5092399;28;20445;-43
2023/07/28 11:06:47;;;;;;;2.05;1.60;;;;;;;35.46;14.54;99469.94;5092015;28;20032;-43
2023/07/28 11:09:15;;;;;;;1.83;1.40;;;;;;;36.38;14.70;99467.25;5091956;28;20119;-45
2023/07/28 11:11:42;;;;;;;2.67;1.55;;;;;;;36.70;14.35;99472.25;5092478;28;20042;-43
2023/07/28 11:14:08;;;;;;;4.10;1.65;;;;;;;37.20;13.92;99457.84;5091986;28;20431;-44
2023/07/28 11:16:36;;;;;;;3.85;1.80;;;;;;;38.04;13.66;99457.66;5091560;28;20050;-44
2023/07/28 11:19:03;;;;;;;1.70;1.60;;;;;;;38.21;13.24;99469.94;5091873;28;20471;-44
2023/07/28 11:21:29;;;;;;;2.83;2.47;;;;;;;37.82;13.48;99458.81;5091448;28;20320;-43
2023/07/28 11:23:54;;;;;;;2.38;1.58;;;;;;;36.83;14.54;99464.41;5091146;28;20063;-42
2023/07/28 11:26:22;;;;;;;2.17;1.80;;;;;;;36.24;14.66;99460.84;5091754;28;20054;-42
2023/07/28 11:28:48;;;;;;;2.80;1.60;;;;;;;35.81;14.85;99448.19;5091914;28;20019;-43
2023/07/28 11:31:13;;;;;;;5.85;1.88;;;;;;;35.80;15.34;99452.13;5091293;28;20104;-43